Time,TemperatureF,DewpointF,PressureIn,WindDirection,WindDirectionDegrees,WindSpeedMPH,WindSpeedGustMPH,Humidity,HourlyPrecipIn,Conditions,Clouds,dailyrainin,SoftwareType,DateUTC
2018-06-22 00:03:44,79.2,73.6,29.99,WSW,243,0.0,0.0,83,0.00,,CLR,0.00,VWS V15.00,2018-06-22 04:03:44,
2018-06-22 00:08:48,79.1,73.5,29.99,WSW,253,0.0,0.0,83,0.00,,CLR,0.00,VWS V15.00,2018-06-22 04:08:48,
2018-06-22 00:13:48,79.0,73.8,29.99,WSW,256,0.0,0.0,84,0.00,,CLR,0.00,VWS V15.00,2018-06-22 04:13:48,
2018-06-22 00:18:48,79.0,73.8,29.99,WSW,256,0.0,0.0,84,0.00,,CLR,0.00,VWS V15.00,2018-06-22 04:18:48,
2018-06-22 00:23:54,78.9,73.7,29.99,WSW,254,0.0,0.0,84,0.00,,CLR,0.00,VWS V15.00,2018-06-22 04:23:54,
2018-06-22 00:28:53,78.9,73.7,29.99,WSW,255,0.0,0.0,84,0.00,,CLR,0.00,VWS V15.00,2018-06-22 04:28:53,
2018-06-22 00:33:53,78.8,73.6,29.99,WSW,251,0.0,0.0,84,0.00,,CLR,0.00,VWS V15.00,2018-06-22 04:33:53,
2018-06-22 00:38:59,78.7,73.5,29.98,WSW,256,0.0,0.0,84,0.00,,CLR,0.00,VWS V15.00,2018-06-22 04:38:59,
2018-06-22 00:43:59,78.7,73.1,29.99,WSW,256,0.0,0.0,83,0.00,,CLR,0.00,VWS V15.00,2018-06-22 04:43:59,
2018-06-22 00:48:58,78.6,73.0,29.99,WSW,256,0.0,0.0,83,0.00,,CLR,0.00,VWS V15.00,2018-06-22 04:48:58,
2018-06-22 00:53:59,78.6,73.0,29.98,WSW,256,0.0,0.0,83,0.00,,CLR,0.00,VWS V15.00,2018-06-22 04:53:59,
2018-06-22 00:59:03,78.6,73.0,29.99,WSW,246,0.0,0.0,83,0.00,,CLR,0.00,VWS V15.00,2018-06-22 04:59:03,
2018-06-22 01:04:03,78.6,73.0,29.98,WSW,246,0.0,0.0,83,0.00,,CLR,0.00,VWS V15.00,2018-06-22 05:04:03,
2018-06-22 01:09:03,78.6,73.4,29.98,WSW,246,0.0,0.0,84,0.00,,CLR,0.00,VWS V15.00,2018-06-22 05:09:03,
2018-06-22 01:14:03,78.6,73.0,29.98,WSW,246,0.0,0.0,83,0.00,,CLR,0.00,VWS V15.00,2018-06-22 05:14:03,
2018-06-22 01:19:13,78.5,72.9,29.98,WSW,246,0.0,0.0,83,0.00,,FEW090,0.00,VWS V15.00,2018-06-22 05:19:13,
2018-06-22 01:24:13,78.6,73.0,29.98,WSW,245,0.0,0.0,83,0.00,,CLR,0.00,VWS V15.00,2018-06-22 05:24:13,
2018-06-22 01:29:13,78.6,73.0,29.97,WSW,246,0.0,0.0,83,0.00,,CLR,0.00,VWS V15.00,2018-06-22 05:29:13,
2018-06-22 01:34:14,78.6,73.0,29.97,WSW,246,0.0,0.0,83,0.00,,CLR,0.00,VWS V15.00,2018-06-22 05:34:14,
2018-06-22 01:39:18,78.6,73.0,29.98,WSW,246,0.0,0.0,83,0.00,,FEW090,0.00,VWS V15.00,2018-06-22 05:39:18,
2018-06-22 01:44:18,78.6,73.0,29.97,WSW,246,0.0,0.0,83,0.00,,FEW090,0.00,VWS V15.00,2018-06-22 05:44:18,
2018-06-22 01:49:19,78.6,73.4,29.97,WSW,246,0.0,0.0,84,0.00,,FEW090,0.00,VWS V15.00,2018-06-22 05:49:19,
2018-06-22 01:54:23,78.6,73.0,29.97,WSW,246,0.0,0.0,83,0.00,,FEW090,0.00,VWS V15.00,2018-06-22 05:54:23,
2018-06-22 01:59:24,78.6,73.0,29.96,WSW,246,0.0,0.0,83,0.00,,FEW090,0.00,VWS V15.00,2018-06-22 05:59:24,
2018-06-22 02:04:24,78.6,73.0,29.97,WSW,246,0.0,0.0,83,0.00,,FEW090,0.00,VWS V15.00,2018-06-22 06:04:24,
2018-06-22 02:09:29,78.6,73.0,29.96,WSW,245,0.0,0.0,83,0.00,,FEW090,0.00,VWS V15.00,2018-06-22 06:09:29,
2018-06-22 02:14:28,78.6,73.4,29.96,WSW,245,0.0,0.0,84,0.00,,FEW090,0.00,VWS V15.00,2018-06-22 06:14:28,
2018-06-22 02:19:28,78.6,73.4,29.97,WSW,244,0.0,0.0,84,0.00,,CLR,0.00,VWS V15.00,2018-06-22 06:19:28,
2018-06-22 02:24:33,78.5,72.9,29.96,WSW,244,0.0,0.0,83,0.00,,FEW090,0.00,VWS V15.00,2018-06-22 06:24:33,
2018-06-22 02:29:33,78.6,73.4,29.95,WSW,243,0.0,0.0,84,0.00,,FEW090,0.00,VWS V15.00,2018-06-22 06:29:33,
2018-06-22 02:34:34,78.5,73.3,29.96,WSW,243,0.0,0.0,84,0.00,,FEW090,0.00,VWS V15.00,2018-06-22 06:34:34,
2018-06-22 02:39:39,78.5,73.3,29.96,WSW,243,0.0,0.0,84,0.00,,CLR,0.00,VWS V15.00,2018-06-22 06:39:39,
2018-06-22 02:44:39,78.6,73.7,29.95,WSW,242,0.0,0.0,85,0.00,,CLR,0.00,VWS V15.00,2018-06-22 06:44:39,
2018-06-22 02:48:39,78.6,73.7,29.96,WSW,242,0.0,0.0,85,0.00,,CLR,0.00,VWS V15.00,2018-06-22 06:48:39,
2018-06-22 02:53:43,78.6,73.7,29.95,WSW,239,0.0,0.0,85,0.00,,CLR,0.00,VWS V15.00,2018-06-22 06:53:43,
2018-06-22 02:58:43,78.6,74.4,29.95,SW,221,0.0,0.0,87,0.00,,CLR,0.00,VWS V15.00,2018-06-22 06:58:43,
2018-06-22 03:03:43,78.6,75.4,29.95,SSW,208,0.0,0.0,90,0.00,,CLR,0.00,VWS V15.00,2018-06-22 07:03:43,
2018-06-22 03:08:48,78.5,73.6,29.95,WSW,246,0.0,0.0,85,0.00,,CLR,0.00,VWS V15.00,2018-06-22 07:08:48,
2018-06-22 03:13:48,78.5,73.6,29.94,WSW,244,0.0,0.0,85,0.00,,CLR,0.00,VWS V15.00,2018-06-22 07:13:48,
2018-06-22 03:18:48,78.5,74.0,29.94,WSW,243,0.0,0.0,86,0.00,,CLR,0.00,VWS V15.00,2018-06-22 07:18:48,
2018-06-22 03:23:54,78.5,74.0,29.94,WSW,243,0.0,0.0,86,0.00,,CLR,0.00,VWS V15.00,2018-06-22 07:23:54,
2018-06-22 03:28:54,78.4,73.9,29.94,WSW,243,0.0,0.0,86,0.00,,CLR,0.00,VWS V15.00,2018-06-22 07:28:54,
2018-06-22 03:33:53,78.4,73.9,29.94,WSW,242,0.0,0.0,86,0.00,,CLR,0.00,VWS V15.00,2018-06-22 07:33:53,
2018-06-22 03:38:59,78.4,74.2,29.94,WSW,247,0.0,0.0,87,0.00,,FEW095,0.00,VWS V15.00,2018-06-22 07:38:59,
2018-06-22 03:43:58,78.3,74.1,29.94,WSW,242,0.0,0.0,87,0.00,,FEW095,0.00,VWS V15.00,2018-06-22 07:43:58,
2018-06-22 03:48:58,78.3,74.1,29.94,WSW,242,0.0,0.0,87,0.00,,FEW095,0.00,VWS V15.00,2018-06-22 07:48:58,
2018-06-22 03:54:03,78.2,74.0,29.95,WSW,242,0.0,0.0,87,0.00,,FEW095,0.00,VWS V15.00,2018-06-22 07:54:03,
2018-06-22 03:59:03,78.2,74.0,29.94,WSW,242,0.0,0.0,87,0.00,,FEW095,0.00,VWS V15.00,2018-06-22 07:59:03,
2018-06-22 04:04:03,78.1,73.9,29.94,WSW,242,0.0,0.0,87,0.00,,FEW095,0.00,VWS V15.00,2018-06-22 08:04:03,
2018-06-22 04:09:03,78.1,74.3,29.93,WSW,242,0.0,0.0,88,0.00,,FEW095,0.00,VWS V15.00,2018-06-22 08:09:03,
2018-06-22 04:14:04,78.0,74.2,29.94,WSW,243,0.0,0.0,88,0.00,,FEW095,0.00,VWS V15.00,2018-06-22 08:14:04,
2018-06-22 04:19:14,78.0,74.2,29.94,WSW,243,0.0,0.0,88,0.00,,CLR,0.00,VWS V15.00,2018-06-22 08:19:14,
2018-06-22 04:24:13,77.9,74.1,29.94,WSW,243,0.0,0.0,88,0.00,,FEW095,0.00,VWS V15.00,2018-06-22 08:24:13,
2018-06-22 04:29:14,77.9,74.1,29.94,WSW,243,0.0,0.0,88,0.00,,FEW095,0.00,VWS V15.00,2018-06-22 08:29:14,
2018-06-22 04:34:19,77.8,74.0,29.94,WSW,242,0.0,0.0,88,0.00,,FEW095,0.00,VWS V15.00,2018-06-22 08:34:19,
2018-06-22 04:39:19,77.8,74.3,29.94,WSW,241,0.0,0.0,89,0.00,,CLR,0.00,VWS V15.00,2018-06-22 08:39:19,
2018-06-22 04:44:23,77.8,74.3,29.95,WSW,240,0.0,0.0,89,0.00,,CLR,0.00,VWS V15.00,2018-06-22 08:44:23,
2018-06-22 04:49:23,77.7,73.9,29.94,WSW,242,0.0,0.0,88,0.00,,CLR,0.00,VWS V15.00,2018-06-22 08:49:23,
2018-06-22 04:54:23,77.7,74.2,29.94,WSW,242,0.0,0.0,89,0.00,,CLR,0.00,VWS V15.00,2018-06-22 08:54:23,
2018-06-22 04:59:28,77.7,74.2,29.94,WSW,241,0.0,0.0,89,0.00,,CLR,0.00,VWS V15.00,2018-06-22 08:59:28,
2018-06-22 05:04:29,77.7,74.2,29.94,WSW,240,0.0,0.0,89,0.00,,CLR,0.00,VWS V15.00,2018-06-22 09:04:29,
2018-06-22 05:09:28,77.6,74.1,29.94,WSW,239,0.0,0.0,89,0.00,,CLR,0.00,VWS V15.00,2018-06-22 09:09:28,
2018-06-22 05:14:29,77.6,74.1,29.94,WSW,239,0.0,0.0,89,0.00,,CLR,0.00,VWS V15.00,2018-06-22 09:14:29,
2018-06-22 05:19:34,77.6,74.1,29.94,WSW,244,0.0,0.0,89,0.00,,CLR,0.00,VWS V15.00,2018-06-22 09:19:34,
2018-06-22 05:24:33,77.7,74.2,29.93,WSW,244,0.0,0.0,89,0.00,,CLR,0.00,VWS V15.00,2018-06-22 09:24:33,
2018-06-22 05:29:34,77.6,74.1,29.94,WSW,244,0.0,0.0,89,0.00,,CLR,0.00,VWS V15.00,2018-06-22 09:29:34,
2018-06-22 05:34:39,77.7,74.2,29.94,WSW,244,0.0,0.0,89,0.00,,CLR,0.00,VWS V15.00,2018-06-22 09:34:39,
2018-06-22 05:38:39,77.7,74.2,29.93,WSW,244,0.0,0.0,89,0.00,,CLR,0.00,VWS V15.00,2018-06-22 09:38:39,
2018-06-22 05:43:43,77.6,74.1,29.94,WSW,244,0.0,0.0,89,0.00,,CLR,0.00,VWS V15.00,2018-06-22 09:43:43,
2018-06-22 05:48:43,77.6,74.1,29.94,WSW,244,0.0,0.0,89,0.00,,CLR,0.00,VWS V15.00,2018-06-22 09:48:43,
2018-06-22 05:53:43,77.6,74.4,29.95,WSW,244,0.0,0.0,90,0.00,,CLR,0.00,VWS V15.00,2018-06-22 09:53:43,
2018-06-22 05:58:44,77.6,74.1,29.96,WSW,244,0.0,0.0,89,0.00,,CLR,0.00,VWS V15.00,2018-06-22 09:58:44,
2018-06-22 06:03:48,77.5,74.3,29.95,WSW,244,0.0,0.0,90,0.00,,CLR,0.00,VWS V15.00,2018-06-22 10:03:48,
2018-06-22 06:08:48,77.5,74.3,29.96,WSW,244,0.0,0.0,90,0.00,,CLR,0.00,VWS V15.00,2018-06-22 10:08:48,
2018-06-22 06:13:48,77.5,74.3,29.96,WSW,244,0.0,0.0,90,0.00,,CLR,0.00,VWS V15.00,2018-06-22 10:13:48,
2018-06-22 06:18:54,77.5,74.3,29.96,WSW,244,0.0,0.0,90,0.00,,CLR,0.00,VWS V15.00,2018-06-22 10:18:54,
2018-06-22 06:23:53,77.4,74.2,29.97,WSW,243,0.0,0.0,90,0.00,,CLR,0.00,VWS V15.00,2018-06-22 10:23:53,
2018-06-22 06:28:53,77.4,74.2,29.97,WSW,243,0.0,0.0,90,0.00,,CLR,0.00,VWS V15.00,2018-06-22 10:28:53,
2018-06-22 06:33:58,77.5,74.3,29.97,WSW,243,0.0,0.0,90,0.00,,CLR,0.00,VWS V15.00,2018-06-22 10:33:58,
2018-06-22 06:38:59,77.5,74.7,29.97,WSW,243,0.0,0.0,91,0.00,,CLR,0.00,VWS V15.00,2018-06-22 10:38:59,
2018-06-22 06:43:58,77.4,74.6,29.98,WSW,243,0.0,0.0,91,0.00,,CLR,0.00,VWS V15.00,2018-06-22 10:43:58,
2018-06-22 06:49:03,77.4,74.6,29.97,WSW,243,0.0,0.0,91,0.00,,CLR,0.00,VWS V15.00,2018-06-22 10:49:03,
2018-06-22 06:54:03,77.5,74.7,29.98,WSW,243,0.0,0.0,91,0.00,,CLR,0.00,VWS V15.00,2018-06-22 10:54:03,
2018-06-22 06:59:03,77.5,74.7,29.97,WSW,242,0.0,0.0,91,0.00,,CLR,0.00,VWS V15.00,2018-06-22 10:59:03,
2018-06-22 07:04:04,77.6,75.1,29.97,SW,236,0.0,0.0,92,0.00,,CLR,0.00,VWS V15.00,2018-06-22 11:04:04,
2018-06-22 07:09:04,77.7,75.2,29.98,SW,236,0.0,0.0,92,0.00,,CLR,0.00,VWS V15.00,2018-06-22 11:09:04,
2018-06-22 07:14:13,77.8,75.3,29.99,WSW,237,0.0,0.0,92,0.00,,CLR,0.00,VWS V15.00,2018-06-22 11:14:13,
2018-06-22 07:19:14,77.9,75.7,29.98,WSW,238,0.0,0.0,93,0.00,,CLR,0.00,VWS V15.00,2018-06-22 11:19:14,
2018-06-22 07:24:14,78.0,75.5,29.98,WSW,238,0.0,0.0,92,0.00,,CLR,0.00,VWS V15.00,2018-06-22 11:24:14,
2018-06-22 07:29:14,78.1,75.9,29.98,WSW,240,0.0,0.0,93,0.00,,CLR,0.00,VWS V15.00,2018-06-22 11:29:14,
2018-06-22 07:34:18,78.3,76.1,29.99,WSW,240,0.0,0.0,93,0.00,,CLR,0.00,VWS V15.00,2018-06-22 11:34:18,
2018-06-22 07:39:18,78.4,76.2,29.99,WSW,240,0.0,0.0,93,0.00,,CLR,0.00,VWS V15.00,2018-06-22 11:39:18,
2018-06-22 07:44:19,78.5,76.3,29.99,WSW,248,0.0,1.0,93,0.00,,CLR,0.00,VWS V15.00,2018-06-22 11:44:19,
2018-06-22 07:49:23,78.8,77.6,30.00,SSW,209,0.0,1.0,96,0.00,,CLR,0.00,VWS V15.00,2018-06-22 11:49:23,
2018-06-22 07:54:24,79.0,77.5,30.00,SW,223,0.0,1.0,95,0.00,,CLR,0.00,VWS V15.00,2018-06-22 11:54:24,
2018-06-22 07:59:28,79.1,76.6,30.00,SW,226,0.0,5.0,92,0.00,,CLR,0.00,VWS V15.00,2018-06-22 11:59:28,
2018-06-22 08:04:28,79.3,76.8,30.00,WSW,254,0.0,7.0,92,0.00,,CLR,0.00,VWS V15.00,2018-06-22 12:04:28,
2018-06-22 08:09:28,79.5,77.0,30.00,WSW,257,0.0,7.0,92,0.00,,CLR,0.00,VWS V15.00,2018-06-22 12:09:28,
2018-06-22 08:14:29,79.7,76.8,30.01,WSW,238,0.0,7.0,91,0.00,,CLR,0.00,VWS V15.00,2018-06-22 12:14:29,
2018-06-22 08:19:34,80.0,77.1,30.00,WSW,241,2.0,8.0,91,0.00,,CLR,0.00,VWS V15.00,2018-06-22 12:19:34,
2018-06-22 08:24:33,80.2,77.0,30.01,WNW,290,0.0,8.0,90,0.00,,CLR,0.00,VWS V15.00,2018-06-22 12:24:33,
2018-06-22 08:29:38,80.3,77.1,30.01,West,262,0.0,8.0,90,0.00,,CLR,0.00,VWS V15.00,2018-06-22 12:29:38,
2018-06-22 08:34:38,80.3,77.1,30.01,WNW,282,0.0,8.0,90,0.00,,CLR,0.00,VWS V15.00,2018-06-22 12:34:38,
2018-06-22 08:38:38,80.5,78.0,30.01,WSW,258,0.0,8.0,92,0.00,,CLR,0.00,VWS V15.00,2018-06-22 12:38:38,
2018-06-22 08:43:39,80.7,77.5,30.01,WNW,287,0.0,8.0,90,0.00,,CLR,0.00,VWS V15.00,2018-06-22 12:43:39,
2018-06-22 08:48:43,81.0,77.8,30.01,West,265,0.0,8.0,90,0.00,,CLR,0.00,VWS V15.00,2018-06-22 12:48:43,
2018-06-22 08:53:44,81.3,77.8,30.01,WNW,284,6.0,8.0,89,0.00,,CLR,0.00,VWS V15.00,2018-06-22 12:53:44,
2018-06-22 08:58:43,81.6,78.0,30.01,WSW,238,0.0,8.0,89,0.00,,CLR,0.00,VWS V15.00,2018-06-22 12:58:43,
2018-06-22 09:03:49,81.9,78.0,30.01,WSW,250,5.0,7.0,88,0.00,,CLR,0.00,VWS V15.00,2018-06-22 13:03:49,
2018-06-22 09:08:48,82.3,78.4,30.01,WSW,242,4.0,10.0,88,0.00,,CLR,0.00,VWS V15.00,2018-06-22 13:08:48,
2018-06-22 09:13:48,82.6,78.7,30.01,West,267,0.0,10.0,88,0.00,,CLR,0.00,VWS V15.00,2018-06-22 13:13:48,
2018-06-22 09:18:54,83.1,78.8,30.01,SW,216,0.0,10.0,87,0.00,,CLR,0.00,VWS V15.00,2018-06-22 13:18:54,
2018-06-22 09:23:54,83.4,79.1,30.01,WNW,291,2.0,10.0,87,0.00,,CLR,0.00,VWS V15.00,2018-06-22 13:23:54,
2018-06-22 09:28:53,83.7,78.7,30.01,West,277,0.0,10.0,85,0.00,,CLR,0.00,VWS V15.00,2018-06-22 13:28:53,
2018-06-22 09:33:58,84.0,78.7,30.02,WSW,255,0.0,10.0,84,0.00,,CLR,0.00,VWS V15.00,2018-06-22 13:33:58,
2018-06-22 09:38:59,84.3,78.9,30.02,West,280,0.0,10.0,84,0.00,,CLR,0.00,VWS V15.00,2018-06-22 13:38:59,
2018-06-22 09:43:58,84.6,78.9,30.01,NW,305,0.0,10.0,83,0.00,,CLR,0.00,VWS V15.00,2018-06-22 13:43:58,
2018-06-22 09:49:03,84.9,78.8,30.01,WNW,302,0.0,10.0,82,0.00,,CLR,0.00,VWS V15.00,2018-06-22 13:49:03,
2018-06-22 09:54:04,85.2,79.5,30.02,WNW,294,0.0,10.0,83,0.00,,CLR,0.00,VWS V15.00,2018-06-22 13:54:04,
2018-06-22 09:59:04,85.6,79.1,30.02,WNW,294,7.0,10.0,81,0.00,,CLR,0.00,VWS V15.00,2018-06-22 13:59:04,
2018-06-22 10:04:03,86.0,79.5,30.02,West,267,3.0,12.0,81,0.00,,CLR,0.00,VWS V15.00,2018-06-22 14:04:03,
2018-06-22 10:09:04,86.3,79.4,30.02,North,350,0.0,12.0,80,0.00,,CLR,0.00,VWS V15.00,2018-06-22 14:09:04,
2018-06-22 10:14:13,86.6,80.5,30.01,WSW,252,0.0,12.0,82,0.00,,CLR,0.00,VWS V15.00,2018-06-22 14:14:13,
2018-06-22 10:19:14,86.9,80.4,30.02,WNW,286,0.0,12.0,81,0.00,,FEW026,0.00,VWS V15.00,2018-06-22 14:19:14,
2018-06-22 10:24:13,87.0,80.1,30.02,WNW,290,0.0,12.0,80,0.00,,CLR,0.00,VWS V15.00,2018-06-22 14:24:13,
2018-06-22 10:29:18,87.2,80.3,30.01,NW,315,2.0,12.0,80,0.00,,CLR,0.00,VWS V15.00,2018-06-22 14:29:18,
2018-06-22 10:34:19,87.2,79.9,30.02,NW,307,4.0,12.0,79,0.00,,CLR,0.00,VWS V15.00,2018-06-22 14:34:19,
2018-06-22 10:39:19,87.5,80.2,30.02,WNW,284,3.0,12.0,79,0.00,,FEW026,0.00,VWS V15.00,2018-06-22 14:39:19,
2018-06-22 10:44:23,87.6,79.9,30.02,WNW,284,0.0,12.0,78,0.00,,FEW026,0.00,VWS V15.00,2018-06-22 14:44:23,
2018-06-22 10:49:23,87.9,80.2,30.01,NW,305,0.0,12.0,78,0.00,,FEW026,0.00,VWS V15.00,2018-06-22 14:49:23,
2018-06-22 10:54:24,88.1,80.4,30.02,NW,304,4.0,12.0,78,0.00,,FEW026,0.00,VWS V15.00,2018-06-22 14:54:24,
2018-06-22 10:59:24,88.2,79.7,30.02,West,261,0.0,12.0,76,0.00,,FEW026,0.00,VWS V15.00,2018-06-22 14:59:24,
2018-06-22 11:04:28,88.2,79.3,30.02,NNW,328,7.0,7.0,75,0.00,,FEW026,0.00,VWS V15.00,2018-06-22 15:04:28,
2018-06-22 11:09:28,88.2,79.3,30.02,WSW,255,3.0,7.0,75,0.00,,FEW026,0.00,VWS V15.00,2018-06-22 15:09:28,
2018-06-22 11:14:28,88.3,79.0,30.02,WSW,252,0.0,7.0,74,0.00,,FEW026,0.00,VWS V15.00,2018-06-22 15:14:28,
2018-06-22 11:19:34,88.7,79.8,30.02,SW,236,0.0,7.0,75,0.00,,FEW026,0.00,VWS V15.00,2018-06-22 15:19:34,
2018-06-22 11:24:33,88.7,78.1,30.02,WSW,247,2.0,8.0,71,0.00,,FEW026,0.00,VWS V15.00,2018-06-22 15:24:33,
2018-06-22 11:29:34,88.8,78.6,30.02,WNW,297,0.0,8.0,72,0.00,,FEW026,0.00,VWS V15.00,2018-06-22 15:29:34,
2018-06-22 11:34:34,89.0,79.2,30.03,NNW,334,4.0,8.0,73,0.00,,FEW026,0.00,VWS V15.00,2018-06-22 15:34:34,
2018-06-22 11:39:38,89.3,79.1,30.03,SW,228,3.0,8.0,72,0.00,,SCT033,0.00,VWS V15.00,2018-06-22 15:39:38,
2018-06-22 11:44:39,89.8,80.0,30.02,NNW,327,0.0,8.0,73,0.00,,SCT033,0.00,VWS V15.00,2018-06-22 15:44:39,
2018-06-22 11:48:38,89.9,79.7,30.02,NW,325,0.0,8.0,72,0.00,,SCT033,0.00,VWS V15.00,2018-06-22 15:48:38,
2018-06-22 11:53:44,90.0,80.2,30.03,NW,314,0.0,13.0,73,0.00,,SCT033,0.00,VWS V15.00,2018-06-22 15:53:44,
2018-06-22 11:58:43,89.9,79.2,30.02,West,276,6.0,13.0,71,0.00,,SCT033,0.00,VWS V15.00,2018-06-22 15:58:43,
2018-06-22 12:03:43,89.8,78.3,30.02,West,275,0.0,3.0,69,0.00,,SCT033,0.00,VWS V15.00,2018-06-22 16:03:43,
2018-06-22 12:08:48,90.1,79.0,30.02,NW,313,4.0,7.0,70,0.00,,SCT033,0.00,VWS V15.00,2018-06-22 16:08:48,
2018-06-22 12:13:49,90.3,79.2,30.02,SW,228,0.0,7.0,70,0.00,,SCT033,0.00,VWS V15.00,2018-06-22 16:13:49,
2018-06-22 12:18:48,90.6,79.5,30.02,NW,307,3.0,11.0,70,0.00,,SCT033,0.00,VWS V15.00,2018-06-22 16:18:48,
2018-06-22 12:23:54,90.7,79.6,30.02,West,273,0.0,11.0,70,0.00,,SCT033,0.00,VWS V15.00,2018-06-22 16:23:54,
2018-06-22 12:28:53,90.8,80.1,30.02,WSW,244,0.0,11.0,71,0.00,,SCT033,0.00,VWS V15.00,2018-06-22 16:28:53,
2018-06-22 12:33:54,91.0,79.4,30.02,WNW,286,2.0,11.0,69,0.00,,SCT033,0.00,VWS V15.00,2018-06-22 16:33:54,
2018-06-22 12:38:58,91.3,77.9,30.02,West,263,0.0,11.0,65,0.00,,BKN110,0.00,VWS V15.00,2018-06-22 16:38:58,
2018-06-22 12:43:59,91.7,78.3,30.01,SSW,209,3.0,11.0,65,0.00,,,0.00,VWS V15.00,2018-06-22 16:43:59,
2018-06-22 12:48:58,92.1,77.2,30.02,West,280,0.0,11.0,62,0.00,,,0.00,VWS V15.00,2018-06-22 16:48:58,
2018-06-22 12:54:03,92.7,78.3,30.01,WSW,250,0.0,11.0,63,0.00,,,0.00,VWS V15.00,2018-06-22 16:54:03,
2018-06-22 12:59:03,93.1,77.2,30.01,WNW,288,0.0,11.0,60,0.00,,SCT100,0.00,VWS V15.00,2018-06-22 16:59:03,
2018-06-22 13:04:03,93.5,79.0,30.01,SW,215,0.0,6.0,63,0.00,,BKN110,0.00,VWS V15.00,2018-06-22 17:04:03,
2018-06-22 13:09:03,93.5,79.5,30.02,North,3,0.0,6.0,64,0.00,,BKN110,0.00,VWS V15.00,2018-06-22 17:09:03,
2018-06-22 13:14:04,93.8,81.2,30.01,East,98,0.0,6.0,67,0.00,,BKN110,0.00,VWS V15.00,2018-06-22 17:14:04,
2018-06-22 13:19:04,93.9,79.9,30.01,SW,224,0.0,6.0,64,0.00,,SCT100,0.00,VWS V15.00,2018-06-22 17:19:04,
2018-06-22 13:24:14,94.0,78.5,30.00,ESE,123,8.0,8.0,61,0.00,,BKN110,0.00,VWS V15.00,2018-06-22 17:24:14,
2018-06-22 13:29:14,94.4,81.3,30.01,East,100,0.0,8.0,66,0.00,,,0.00,VWS V15.00,2018-06-22 17:29:14,
2018-06-22 13:34:14,92.8,80.7,30.00,NE,45,4.0,8.0,68,0.00,,SCT100,0.00,VWS V15.00,2018-06-22 17:34:14,
2018-06-22 13:39:18,91.5,79.5,30.00,NE,36,0.0,8.0,68,0.00,,OVC095,0.00,VWS V15.00,2018-06-22 17:39:18,
2018-06-22 13:44:19,90.4,78.4,30.00,ENE,65,4.0,8.0,68,0.00,,OVC095,0.00,VWS V15.00,2018-06-22 17:44:19,
2018-06-22 13:49:18,89.7,78.6,30.00,ENE,75,0.0,8.0,70,0.00,,OVC095,0.00,VWS V15.00,2018-06-22 17:49:18,
2018-06-22 13:54:23,89.5,79.3,30.00,ENE,66,0.0,10.0,72,0.00,,OVC095,0.00,VWS V15.00,2018-06-22 17:54:23,
2018-06-22 13:59:24,88.9,80.0,30.00,ESE,121,3.0,10.0,75,0.00,,OVC095,0.00,VWS V15.00,2018-06-22 17:59:24,
2018-06-22 14:04:24,88.4,79.9,30.00,ESE,104,5.0,7.0,76,0.00,,OVC095,0.00,VWS V15.00,2018-06-22 18:04:24,
2018-06-22 14:09:24,88.0,79.9,30.00,ESE,113,5.0,10.0,77,0.00,,OVC095,0.00,VWS V15.00,2018-06-22 18:09:24,
2018-06-22 14:14:29,87.6,79.5,30.00,ESE,122,0.0,10.0,77,0.00,,OVC095,0.00,VWS V15.00,2018-06-22 18:14:29,
2018-06-22 14:19:29,87.3,79.6,30.01,SE,124,1.0,10.0,78,0.00,,OVC095,0.00,VWS V15.00,2018-06-22 18:19:29,
2018-06-22 14:24:29,87.2,79.1,30.00,ESE,113,3.0,10.0,77,0.00,,OVC095,0.00,VWS V15.00,2018-06-22 18:24:29,
2018-06-22 14:29:33,87.2,79.5,30.00,ENE,61,0.0,10.0,78,0.00,,OVC095,0.00,VWS V15.00,2018-06-22 18:29:33,
2018-06-22 14:34:33,87.2,80.3,29.99,ESE,113,0.0,10.0,80,0.00,,OVC095,0.00,VWS V15.00,2018-06-22 18:34:33,
2018-06-22 14:39:33,87.7,80.0,29.99,ESE,123,0.0,10.0,78,0.00,,BKN028,0.00,VWS V15.00,2018-06-22 18:39:33,
2018-06-22 14:44:39,87.9,79.4,29.99,SE,127,2.0,12.0,76,0.00,,BKN028,0.00,VWS V15.00,2018-06-22 18:44:39,
2018-06-22 14:49:39,88.3,80.2,29.98,ESE,121,9.0,12.0,77,0.00,,BKN028,0.00,VWS V15.00,2018-06-22 18:49:39,
2018-06-22 14:53:38,88.8,79.9,29.99,ESE,103,0.0,12.0,75,0.00,,BKN028,0.00,VWS V15.00,2018-06-22 18:53:38,
2018-06-22 14:58:39,89.2,79.8,29.99,East,100,6.0,12.0,74,0.00,,BKN028,0.00,VWS V15.00,2018-06-22 18:58:39,
2018-06-22 15:03:43,89.6,79.0,29.98,SE,138,1.0,8.0,71,0.00,,BKN028,0.00,VWS V15.00,2018-06-22 19:03:43,
2018-06-22 15:08:43,89.9,81.3,29.99,East,100,0.0,9.0,76,0.00,,BKN014,0.00,VWS V15.00,2018-06-22 19:08:43,
2018-06-22 15:13:43,90.3,79.6,29.98,ESE,114,4.0,9.0,71,0.00,,BKN028,0.00,VWS V15.00,2018-06-22 19:13:43,
2018-06-22 15:18:48,90.8,80.5,29.98,ESE,122,6.0,9.0,72,0.00,,BKN028,0.00,VWS V15.00,2018-06-22 19:18:48,
2018-06-22 15:23:49,91.2,80.5,29.98,East,93,1.0,10.0,71,0.00,,BKN014,0.00,VWS V15.00,2018-06-22 19:23:49,
2018-06-22 15:28:48,91.1,81.2,29.99,ESE,122,0.0,12.0,73,0.00,,BKN028,0.00,VWS V15.00,2018-06-22 19:28:48,
2018-06-22 15:33:53,91.3,81.8,29.98,SE,125,10.0,13.0,74,0.00,,BKN028,0.00,VWS V15.00,2018-06-22 19:33:53,
2018-06-22 15:38:53,91.6,80.9,29.99,SSE,159,4.0,13.0,71,0.00,,BKN020,0.00,VWS V15.00,2018-06-22 19:38:53,
2018-06-22 15:43:54,91.7,79.6,29.98,SE,131,11.0,13.0,68,0.00,,BKN020,0.00,VWS V15.00,2018-06-22 19:43:54,
2018-06-22 15:48:58,91.4,79.4,29.98,South,171,1.0,13.0,68,0.00,,BKN020,0.00,VWS V15.00,2018-06-22 19:48:58,
2018-06-22 15:53:58,91.0,79.4,29.99,ESE,111,0.0,13.0,69,0.00,,BKN020,0.00,VWS V15.00,2018-06-22 19:53:58,
2018-06-22 15:58:59,90.2,77.3,29.98,SSE,151,0.0,14.0,66,0.00,,BKN020,0.00,VWS V15.00,2018-06-22 19:58:59,
2018-06-22 16:04:03,89.4,77.5,29.99,South,177,0.0,10.0,68,0.00,,BKN020,0.00,VWS V15.00,2018-06-22 20:04:03,
2018-06-22 16:09:04,88.7,77.2,29.99,South,186,0.0,10.0,69,0.00,,BKN020,0.00,VWS V15.00,2018-06-22 20:09:04,
2018-06-22 16:14:03,88.2,77.2,29.98,South,173,0.0,10.0,70,0.00,,BKN020,0.00,VWS V15.00,2018-06-22 20:14:03,
2018-06-22 16:19:04,87.8,76.8,29.99,South,173,0.0,10.0,70,0.00,,BKN020,0.00,VWS V15.00,2018-06-22 20:19:04,
2018-06-22 16:24:03,87.1,76.1,29.98,SSE,167,0.0,10.0,70,0.00,,BKN020,0.00,VWS V15.00,2018-06-22 20:24:03,
2018-06-22 16:29:13,85.6,76.0,29.97,South,172,0.0,10.0,73,0.00,,BKN020,0.00,VWS V15.00,2018-06-22 20:29:13,
2018-06-22 16:34:13,85.0,76.2,29.97,ESE,122,0.0,10.0,75,0.00,,BKN020,0.00,VWS V15.00,2018-06-22 20:34:13,
2018-06-22 16:39:14,84.9,76.1,29.97,ESE,122,0.0,10.0,75,0.00,,FEW042,0.00,VWS V15.00,2018-06-22 20:39:14,
2018-06-22 16:44:13,84.6,75.8,29.98,ESE,122,0.0,10.0,75,0.00,,SCT050,0.00,VWS V15.00,2018-06-22 20:44:13,
2018-06-22 16:49:18,84.5,76.1,29.98,ESE,122,0.0,10.0,76,0.00,,SCT050,0.00,VWS V15.00,2018-06-22 20:49:18,
2018-06-22 16:54:19,84.6,76.2,29.98,ESE,122,0.0,10.0,76,0.00,,FEW095,0.00,VWS V15.00,2018-06-22 20:54:19,
2018-06-22 16:59:18,84.5,76.1,29.97,ESE,122,0.0,10.0,76,0.00,,FEW095,0.00,VWS V15.00,2018-06-22 20:59:18,
2018-06-22 17:04:24,84.4,76.0,29.98,SSE,155,0.0,0.0,76,0.00,,SCT050,0.00,VWS V15.00,2018-06-22 21:04:24,
2018-06-22 17:09:23,84.5,76.9,29.98,WSW,246,4.0,4.0,78,0.00,,BKN020,0.00,VWS V15.00,2018-06-22 21:09:23,
2018-06-22 17:14:23,84.5,76.9,29.98,WSW,238,0.0,8.0,78,0.00,,FEW042,0.00,VWS V15.00,2018-06-22 21:14:23,
2018-06-22 17:19:24,84.4,76.8,30.00,SW,214,0.0,8.0,78,0.00,,FEW095,0.00,VWS V15.00,2018-06-22 21:19:24,
2018-06-22 17:24:28,84.2,76.6,29.98,SSW,199,2.0,8.0,78,0.00,,SCT042,0.00,VWS V15.00,2018-06-22 21:24:28,
2018-06-22 17:29:29,84.1,76.5,29.98,SSW,208,0.0,8.0,78,0.00,,FEW095,0.00,VWS V15.00,2018-06-22 21:29:29,
2018-06-22 17:34:28,84.0,76.4,29.98,SSW,199,0.0,8.0,78,0.00,,FEW095,0.00,VWS V15.00,2018-06-22 21:34:28,
2018-06-22 17:39:34,83.9,76.3,29.97,South,177,3.0,8.0,78,0.00,,-RA,0.00,VWS V15.00,2018-06-22 21:39:34,
2018-06-22 17:44:34,83.9,76.7,29.97,South,186,0.0,8.0,79,0.00,,-RA,0.00,VWS V15.00,2018-06-22 21:44:34,
2018-06-22 17:49:33,83.8,75.8,29.98,SSW,195,0.0,8.0,77,0.00,,-RA,0.00,VWS V15.00,2018-06-22 21:49:33,
2018-06-22 17:54:39,83.7,75.3,29.98,SSW,201,0.0,8.0,76,0.00,,-RA,0.00,VWS V15.00,2018-06-22 21:54:39,
2018-06-22 17:59:38,83.7,75.7,29.99,SW,221,0.0,8.0,77,0.00,,-RA,0.00,VWS V15.00,2018-06-22 21:59:38,
2018-06-22 18:04:38,83.7,76.1,29.99,SW,214,0.0,0.0,78,0.00,,-RA,0.00,VWS V15.00,2018-06-22 22:04:38,
2018-06-22 18:08:39,83.8,76.6,29.99,SSW,200,0.0,0.0,79,0.00,,SCT020,0.00,VWS V15.00,2018-06-22 22:08:39,
2018-06-22 18:13:43,83.8,75.8,29.98,SSW,211,0.0,0.0,77,0.00,,-RA,0.00,VWS V15.00,2018-06-22 22:13:43,
2018-06-22 18:18:43,83.8,75.8,29.98,SSW,206,0.0,0.0,77,0.00,,BKN095,0.00,VWS V15.00,2018-06-22 22:18:43,
2018-06-22 18:23:44,83.8,75.4,29.99,SSW,213,0.0,0.0,76,0.00,,SCT020,0.00,VWS V15.00,2018-06-22 22:23:44,
2018-06-22 18:28:48,83.9,75.5,29.99,SW,215,0.0,0.0,76,0.00,,-RA,0.00,VWS V15.00,2018-06-22 22:28:48,
2018-06-22 18:33:49,83.9,75.5,29.98,SW,214,0.0,0.0,76,0.00,,-RA,0.00,VWS V15.00,2018-06-22 22:33:49,
2018-06-22 18:39:13,83.8,75.0,29.97,West,269,0.0,0.0,75,0.00,,BKN095,0.00,VWS V15.00,2018-06-22 22:39:13,
2018-06-22 18:44:14,83.8,75.4,29.99,West,268,0.0,0.0,76,0.00,,BKN095,0.00,VWS V15.00,2018-06-22 22:44:14,
2018-06-22 18:49:14,83.8,75.4,29.97,West,269,0.0,0.0,76,0.00,,BKN095,0.00,VWS V15.00,2018-06-22 22:49:14,
2018-06-22 18:54:19,83.7,75.3,29.98,West,267,0.0,0.0,76,0.00,,BKN095,0.00,VWS V15.00,2018-06-22 22:54:19,
2018-06-22 18:59:19,83.7,75.3,29.98,West,265,0.0,0.0,76,0.00,,BKN095,0.00,VWS V15.00,2018-06-22 22:59:19,
2018-06-22 19:04:18,83.6,75.2,29.98,West,265,0.0,0.0,76,0.00,,BKN095,0.00,VWS V15.00,2018-06-22 23:04:18,
2018-06-22 19:09:24,83.6,75.2,29.99,West,265,0.0,0.0,76,0.00,,BKN095,0.00,VWS V15.00,2018-06-22 23:09:24,